Terminal Aerodrome Forecast
Issued by NWS

Home | Current Version | Previous Version | Text Only | Print | Product List | Glossary On
Versions: 1 2 3 4 5 6 7 8 9 10 11
272
FTUS45 KABQ 091211 RRA
TAFSAF
TAF
KSAF 091211Z 0912/1012 36010G17KT P6SM SKC
     FM092130 34006KT P6SM SKC
     FM101000 01010KT P6SM SKC=

USA.gov is the U.S. government's official web portal to all federal, state and local government web resources and services.